首页
METAR-TAF:

METAR-TAF

机场 :

Greenwood, 新斯科舍, 加拿大

纬度: 44-59N, 经度: 064-55W, 海拔: 28米

当前天气观测

该预报发布于37分钟前的17:00 UTC
风速4节,风向西
温度 20°C
湿度 94%
气压 1000 hPa
能見度: 4.8公里
阴天层高于900英尺
小阵雨, 轻雾

METAR: CYZX 241700Z 27004KT 3SM -SHRA BR OVC009 20/19 A2954 RMK SF8 DENSITY ALT 1474FT PCPN VRY LGT SLP002

时间: 14:37 (17:37 UTC)

预报

该预报发布于2小时和19分钟前的15:18 UTC
预报有效从24日的 15点(UTC)到 25日的 12点(UTC)
风速8节,风向西转西南
能見度: 9.7公里
阴天层高于1500英尺
小毛毛雨, 轻雾
短暂存在
从 24日的 15点(UTC)到 24日的 17点(UTC)
能見度: 2.4公里
多云层高于500英尺
阴天层高于1200英尺
小阵雨, 轻雾
几率 30%
从 24日的 16点(UTC)到 24日的 17点(UTC)
能見度: 1.6公里
阴天层高于1200英尺, 积雨云.
雷暴, 雨, 轻雾
从 24日的 1700点(UTC)
风速10节,风向西南
能見度: 1.6公里
散云层高于800英尺
阴天层高于1500英尺
小阵雨, 小毛毛雨, 轻雾
短暂存在
从 24日的 17点(UTC)到 24日的 23点(UTC)
能見度: 1.6公里
阴天层高于1200英尺
轻雾
几率 40%
从 24日的 17点(UTC)到 24日的 23点(UTC)
能見度: 1.6公里
阴天层高于1200英尺, 积雨云.
雷暴, 雨, 轻雾
从 24日的 2300点(UTC)
风速8节,风向北转东北
能見度: 1.6公里
阴天层高于800英尺
小雨, 小毛毛雨, 轻雾

TAF: CYZX 241518Z 2415/2512 25008KT 6SM -DZ BR OVC015 TEMPO 2415/2417 1 1/2SM -SHRA BR BKN005 OVC012 PROB30 2416/2417 2SM TSRA BR OVC012CB FM241700 23010KT 6SM -SHRA -DZ BR SCT008 OVC015 TEMPO 2417/2423 2SM BR OVC012 PROB40 2417/2423 2SM TSRA BR OVC012CB FM242300 02008KT 3SM -RA -DZ BR OVC008 RMK NXT FCST BY 241800Z

超过4000个机场的气象观测和天气预报(METAR&TAF报告)。

可查询的气象台以黄色和红色小点在地图上表示。

将鼠标移到小点上方,可查看气象台名称。

然后点击查看天气观测和预报。

如需切换地图:点击带黑十字的绿色按钮放大地图;点击带横线的绿色按钮缩小地图;或者点击绿色箭头查看邻近地区的地图。


METAR-TAF: